Arkdale, Wisconsin
Current Conditions -  °F | °C
As of 2:58 AM on Sunday 21 Dec 2014 (Local Time) from KVOK Reporting Station
Haze Haze  
Wind Chill: 23°   Ceiling: 800
Heat Index: 30°   Visibility: 6mi
Dew Point: 30°   Wind: 7mph
Humidity: 100%   Direction: 130°SE
Pressure: 30.13"   Gusts: NA
Location:  44.03°N, 89.89°W
Report Text: KVOK 210858Z AUTO 13006KT 6SM R27/5000FT BR OVC008 M01/M01 A3013 RMK AO2 SLP218 60000 T10121012 57010
Loading
Personal Weather Stations






























Interactive Weather Map New forecast layout! Learn more

10-Day Weather Forecast

Advertisements
Track Severe Weather on mobile